createdAt,value
2018-09-16T00:00:08.596Z,14.46
2018-09-16T00:01:08.624Z,14.41
2018-09-16T00:02:08.653Z,14.41
2018-09-16T00:03:08.681Z,14.48
2018-09-16T00:04:08.711Z,14.39
2018-09-16T00:05:08.734Z,14.34
2018-09-16T00:06:08.764Z,14.31
2018-09-16T00:07:08.795Z,14.31
2018-09-16T00:08:08.817Z,14.30
2018-09-16T00:09:08.844Z,14.28
2018-09-16T00:10:08.875Z,14.27
2018-09-16T00:11:08.902Z,14.24
2018-09-16T00:12:08.929Z,14.28
2018-09-16T00:13:08.958Z,14.33
2018-09-16T00:14:08.986Z,14.30
2018-09-16T00:15:09.013Z,14.33
2018-09-16T00:16:09.037Z,14.28
2018-09-16T00:17:09.068Z,14.21
2018-09-16T00:18:09.092Z,14.27
2018-09-16T00:19:09.123Z,14.30
2018-09-16T00:20:09.148Z,14.21
2018-09-16T00:21:09.176Z,14.24
2018-09-16T00:22:09.209Z,14.20
2018-09-16T00:23:09.234Z,14.20
2018-09-16T00:24:09.259Z,14.23
2018-09-16T00:25:09.287Z,14.21
2018-09-16T00:26:09.316Z,14.19
2018-09-16T00:27:09.351Z,14.16
2018-09-16T00:28:09.372Z,14.23
2018-09-16T00:29:09.400Z,14.06
2018-09-16T00:30:09.427Z,14.06
2018-09-16T00:31:09.455Z,14.13
2018-09-16T00:32:09.479Z,14.11
2018-09-16T00:33:09.509Z,14.02
2018-09-16T00:34:09.536Z,14.09
2018-09-16T00:35:09.565Z,14.02
2018-09-16T00:36:09.590Z,14.08
2018-09-16T00:37:09.619Z,14.05
2018-09-16T00:38:09.647Z,14.01
2018-09-16T00:39:09.672Z,14.03
2018-09-16T00:40:09.702Z,14.05
2018-09-16T00:41:09.728Z,14.03
2018-09-16T00:42:09.758Z,14.03
2018-09-16T00:43:09.785Z,13.99
2018-09-16T00:44:09.812Z,13.97
2018-09-16T00:45:09.837Z,13.88
2018-09-16T00:46:09.870Z,13.93
2018-09-16T00:47:09.895Z,13.94
2018-09-16T00:48:09.920Z,13.81
2018-09-16T00:49:09.952Z,13.97
2018-09-16T00:50:09.980Z,14.01
2018-09-16T00:51:10.006Z,13.91
2018-09-16T00:52:10.032Z,13.93
2018-09-16T00:53:10.060Z,13.94
2018-09-16T00:54:10.090Z,13.90
2018-09-16T00:55:10.117Z,13.93
2018-09-16T00:56:10.139Z,13.93
2018-09-16T00:57:10.167Z,13.93
2018-09-16T00:58:10.199Z,13.95
2018-09-16T00:59:10.225Z,13.95
2018-09-16T01:00:10.252Z,14.03
2018-09-16T01:01:10.276Z,14.03
2018-09-16T01:02:10.307Z,13.93
2018-09-16T01:03:10.335Z,14.01
2018-09-16T01:04:10.366Z,13.99
2018-09-16T01:05:10.389Z,14.05
2018-09-16T01:06:10.415Z,13.99
2018-09-16T01:07:10.444Z,13.95
2018-09-16T01:08:10.476Z,14.03
2018-09-16T01:09:10.701Z,13.97
2018-09-16T01:10:10.523Z,14.06
2018-09-16T01:11:10.554Z,14.01
2018-09-16T01:12:10.578Z,13.97
2018-09-16T01:13:10.613Z,13.94
2018-09-16T01:14:10.636Z,14.03
2018-09-16T01:15:10.664Z,13.99
2018-09-16T01:16:10.691Z,13.91
2018-09-16T01:17:10.718Z,14.02
2018-09-16T01:18:10.745Z,13.91
2018-09-16T01:19:10.771Z,13.97
2018-09-16T01:20:10.797Z,13.91
2018-09-16T01:21:10.825Z,13.94
2018-09-16T01:22:10.851Z,13.88
2018-09-16T01:23:10.880Z,13.91
2018-09-16T01:24:10.908Z,13.91
2018-09-16T01:25:10.939Z,13.88
2018-09-16T01:26:10.968Z,13.97
2018-09-16T01:27:10.992Z,13.88
2018-09-16T01:28:11.019Z,13.90
2018-09-16T01:29:11.044Z,13.76
2018-09-16T01:30:11.071Z,13.78
2018-09-16T01:31:11.101Z,13.75
2018-09-16T01:32:11.126Z,13.73
2018-09-16T01:33:11.154Z,13.79
2018-09-16T01:34:11.180Z,13.81
2018-09-16T01:35:11.210Z,13.78
2018-09-16T01:36:11.235Z,13.72
2018-09-16T01:37:11.262Z,13.73
2018-09-16T01:38:11.289Z,13.78
2018-09-16T01:39:11.317Z,13.78
2018-09-16T01:40:11.344Z,13.78
2018-09-16T01:41:11.371Z,13.81
2018-09-16T01:42:11.402Z,13.72
2018-09-16T01:43:11.430Z,13.73
2018-09-16T01:44:11.456Z,13.63
2018-09-16T01:45:11.483Z,13.65
2018-09-16T01:46:11.511Z,13.62
2018-09-16T01:47:11.539Z,13.53
2018-09-16T01:48:11.565Z,13.55
2018-09-16T01:49:11.589Z,13.51
2018-09-16T01:50:11.618Z,13.58
2018-09-16T01:51:11.648Z,13.55
2018-09-16T01:52:11.674Z,13.42
2018-09-16T01:53:11.699Z,13.53
2018-09-16T01:54:11.729Z,13.44
2018-09-16T01:55:11.756Z,13.40
2018-09-16T01:56:11.783Z,13.37
2018-09-16T01:57:11.807Z,13.39
2018-09-16T01:58:11.838Z,13.42
2018-09-16T01:59:11.866Z,13.48
2018-09-16T02:00:11.890Z,13.39
2018-09-16T02:01:11.919Z,13.21
2018-09-16T02:02:54.494Z,13.20
2018-09-16T02:03:54.521Z,13.21
2018-09-16T02:04:54.552Z,13.19
2018-09-16T02:05:54.576Z,13.20
2018-09-16T02:06:54.603Z,13.17
2018-09-16T02:07:54.634Z,13.14
2018-09-16T02:09:37.206Z,13.07
2018-09-16T02:10:37.233Z,13.17
2018-09-16T02:11:37.267Z,13.09
2018-09-16T02:12:37.291Z,13.13
2018-09-16T02:13:37.315Z,13.17
2018-09-16T02:14:37.345Z,13.16
2018-09-16T02:15:37.373Z,13.17
2018-09-16T02:16:37.399Z,13.17
2018-09-16T02:17:37.424Z,13.16
2018-09-16T02:18:37.453Z,13.16
2018-09-16T02:19:37.498Z,13.20
2018-09-16T02:20:37.506Z,13.14
2018-09-16T02:21:37.532Z,13.16
2018-09-16T02:22:37.566Z,13.10
2018-09-16T02:23:37.588Z,13.11
2018-09-16T02:24:37.614Z,13.14
2018-09-16T02:25:37.643Z,13.10
2018-09-16T02:26:37.672Z,13.09
2018-09-16T02:27:37.696Z,13.13
2018-09-16T02:28:37.721Z,13.11
2018-09-16T02:29:37.750Z,13.06
2018-09-16T02:30:37.776Z,13.10
2018-09-16T02:31:37.808Z,12.98
2018-09-16T02:32:37.832Z,13.02
2018-09-16T02:33:37.857Z,12.96
2018-09-16T02:34:37.885Z,12.92
2018-09-16T02:35:37.910Z,12.94
2018-09-16T02:36:37.935Z,12.94
2018-09-16T02:37:40.988Z,12.92
2018-09-16T02:38:37.990Z,12.89
2018-09-16T02:39:38.016Z,12.92
2018-09-16T02:40:38.045Z,12.88
2018-09-16T02:41:38.070Z,12.88
2018-09-16T02:42:38.098Z,12.80
2018-09-16T02:43:38.124Z,12.88
2018-09-16T02:44:38.154Z,12.88
2018-09-16T02:45:38.176Z,12.86
2018-09-16T02:46:38.205Z,12.81
2018-09-16T02:47:38.230Z,12.80
2018-09-16T02:48:38.270Z,12.86
2018-09-16T02:49:41.924Z,12.83
2018-09-16T02:50:38.311Z,12.78
2018-09-16T02:51:38.336Z,12.71
2018-09-16T02:52:38.360Z,12.74
2018-09-16T02:53:38.391Z,12.80
2018-09-16T02:54:38.418Z,12.78
2018-09-16T02:55:38.452Z,12.78
2018-09-16T02:56:39.480Z,12.86
2018-09-16T02:57:38.497Z,12.74
2018-09-16T02:58:38.523Z,12.74
2018-09-16T02:59:38.552Z,12.73
2018-09-16T03:00:38.592Z,12.74
2018-09-16T03:01:38.604Z,12.80
2018-09-16T03:02:38.639Z,12.74
2018-09-16T03:03:38.663Z,12.78
2018-09-16T03:04:38.682Z,12.74
2018-09-16T03:05:38.709Z,12.80
2018-09-16T03:06:38.740Z,12.80
2018-09-16T03:07:38.763Z,12.78
2018-09-16T03:08:38.788Z,12.81
2018-09-16T03:09:38.819Z,12.76
2018-09-16T03:10:38.843Z,12.80
2018-09-16T03:11:38.957Z,12.74
2018-09-16T03:12:38.897Z,12.84
2018-09-16T03:13:38.925Z,12.78
2018-09-16T03:14:38.949Z,12.74
2018-09-16T03:15:38.979Z,12.66
2018-09-16T03:16:39.032Z,12.71
2018-09-16T03:17:39.031Z,12.69
2018-09-16T03:18:39.068Z,12.71
2018-09-16T03:19:39.091Z,12.71
2018-09-16T03:20:39.113Z,12.74
2018-09-16T03:21:39.136Z,12.71
2018-09-16T03:22:39.167Z,12.69
2018-09-16T03:23:39.192Z,12.63
2018-09-16T03:24:39.226Z,12.61
2018-09-16T03:25:39.247Z,12.69
2018-09-16T03:26:39.275Z,12.61
2018-09-16T03:27:39.302Z,12.56
2018-09-16T03:28:39.324Z,12.66
2018-09-16T03:29:39.358Z,12.63
2018-09-16T03:30:39.382Z,12.65
2018-09-16T03:31:39.408Z,12.65
2018-09-16T03:32:39.433Z,12.61
2018-09-16T03:33:39.461Z,12.58
2018-09-16T03:34:39.502Z,12.63
2018-09-16T03:35:39.512Z,12.63
2018-09-16T03:36:39.541Z,12.62
2018-09-16T03:37:39.566Z,12.53
2018-09-16T03:38:39.595Z,12.61
2018-09-16T03:39:39.622Z,12.63
2018-09-16T03:40:39.649Z,12.62
2018-09-16T03:41:39.674Z,12.58
2018-09-16T03:42:39.700Z,12.61
2018-09-16T03:43:39.727Z,12.63
2018-09-16T03:44:39.753Z,12.65
2018-09-16T03:45:39.779Z,12.65
2018-09-16T03:46:39.828Z,12.61
2018-09-16T03:47:39.834Z,12.66
2018-09-16T03:48:39.860Z,12.63
2018-09-16T03:49:39.887Z,12.65
2018-09-16T03:50:39.983Z,12.61
2018-09-16T03:51:39.940Z,12.70
2018-09-16T03:52:39.968Z,12.61
2018-09-16T03:53:39.997Z,12.52
2018-09-16T03:54:40.021Z,12.59
2018-09-16T03:55:40.047Z,12.58
2018-09-16T03:56:40.073Z,12.65
2018-09-16T03:57:40.101Z,12.47
2018-09-16T03:58:40.128Z,12.44
2018-09-16T03:59:40.187Z,12.58
2018-09-16T04:00:40.182Z,12.53
2018-09-16T04:01:40.213Z,12.52
2018-09-16T04:02:40.243Z,12.45
2018-09-16T04:03:40.262Z,12.45
2018-09-16T04:04:40.290Z,12.47
2018-09-16T04:05:40.319Z,12.51
2018-09-16T04:06:40.345Z,12.38
2018-09-16T04:07:40.373Z,12.34
2018-09-16T04:08:40.398Z,12.38
2018-09-16T04:09:40.422Z,12.37
2018-09-16T04:10:40.453Z,12.40
2018-09-16T04:11:40.475Z,12.36
2018-09-16T04:12:40.503Z,12.44
2018-09-16T04:13:40.537Z,12.33
2018-09-16T04:14:40.557Z,12.34
2018-09-16T04:15:40.581Z,12.33
2018-09-16T04:16:40.613Z,12.31
2018-09-16T04:17:40.633Z,12.31
2018-09-16T04:18:40.664Z,12.26
2018-09-16T04:19:40.689Z,12.29
2018-09-16T04:20:40.714Z,12.33
2018-09-16T04:21:40.744Z,12.33
2018-09-16T04:22:40.768Z,12.23
2018-09-16T04:23:40.795Z,12.29
2018-09-16T04:24:40.829Z,12.22
2018-09-16T04:25:40.851Z,12.29
2018-09-16T04:26:40.875Z,12.25
2018-09-16T04:27:40.905Z,12.23
2018-09-16T04:28:40.928Z,12.26
2018-09-16T04:29:40.956Z,12.22
2018-09-16T04:30:40.981Z,12.20
2018-09-16T04:31:41.007Z,12.20
2018-09-16T04:32:41.037Z,12.16
2018-09-16T04:33:41.061Z,12.16
2018-09-16T04:34:41.090Z,12.03
2018-09-16T04:35:41.117Z,12.15
2018-09-16T04:36:41.140Z,12.16
2018-09-16T04:37:41.166Z,12.15
2018-09-16T04:38:41.195Z,12.10
2018-09-16T04:39:41.223Z,12.16
2018-09-16T04:40:41.249Z,12.08
2018-09-16T04:41:41.272Z,12.11
2018-09-16T04:42:41.298Z,12.07
2018-09-16T04:43:41.326Z,12.01
2018-09-16T04:44:41.354Z,12.03
2018-09-16T04:45:41.380Z,12.04
2018-09-16T04:46:41.407Z,12.00
2018-09-16T04:47:41.434Z,11.91
2018-09-16T04:48:41.460Z,12.03
2018-09-16T04:49:41.496Z,12.03
2018-09-16T04:50:41.511Z,12.05
2018-09-16T04:51:41.537Z,12.04
2018-09-16T04:52:41.564Z,11.95
2018-09-16T04:53:41.591Z,12.05
2018-09-16T04:54:41.616Z,12.05
2018-09-16T04:55:41.642Z,12.01
2018-09-16T04:56:41.667Z,12.04
2018-09-16T04:57:41.695Z,11.86
2018-09-16T04:58:41.721Z,12.03
2018-09-16T04:59:41.751Z,11.94
2018-09-16T05:00:41.776Z,11.94
2018-09-16T05:01:41.803Z,12.05
2018-09-16T05:02:41.834Z,12.07
2018-09-16T05:03:41.857Z,11.89
2018-09-16T05:04:41.881Z,12.00
2018-09-16T05:05:41.913Z,11.94
2018-09-16T05:06:41.945Z,11.88
2018-09-16T05:07:41.960Z,11.88
2018-09-16T05:08:41.989Z,11.84
2018-09-16T05:09:42.015Z,11.85
2018-09-16T05:10:42.039Z,11.91
2018-09-16T05:11:42.065Z,11.89
2018-09-16T05:12:42.092Z,11.86
2018-09-16T05:13:42.121Z,11.85
2018-09-16T05:14:42.152Z,11.95
2018-09-16T05:15:42.174Z,11.78
2018-09-16T05:16:42.195Z,11.73
2018-09-16T05:17:42.222Z,11.71
2018-09-16T05:18:42.252Z,11.81
2018-09-16T05:19:42.275Z,11.84
2018-09-16T05:20:42.302Z,11.85
2018-09-16T05:21:42.332Z,11.82
2018-09-16T05:22:42.457Z,11.84
2018-09-16T05:23:42.384Z,11.78
2018-09-16T05:24:42.409Z,11.81
2018-09-16T05:25:42.434Z,11.79
2018-09-16T05:26:42.464Z,11.78
2018-09-16T05:27:42.490Z,11.88
2018-09-16T05:28:42.516Z,11.73
2018-09-16T05:29:42.543Z,11.91
2018-09-16T05:30:42.566Z,11.78
2018-09-16T05:31:42.596Z,11.95
2018-09-16T05:32:42.618Z,11.94
2018-09-16T05:33:42.648Z,11.86
2018-09-16T05:34:42.674Z,11.98
2018-09-16T05:35:42.699Z,12.01
2018-09-16T05:36:42.724Z,12.07
2018-09-16T05:37:42.793Z,11.97
2018-09-16T05:38:42.779Z,12.08
2018-09-16T05:39:42.804Z,11.91
2018-09-16T05:40:42.830Z,12.04
2018-09-16T05:41:42.862Z,12.03
2018-09-16T05:42:42.883Z,11.91
2018-09-16T05:43:42.914Z,11.89
2018-09-16T05:44:42.938Z,11.91
2018-09-16T05:45:42.962Z,11.98
2018-09-16T05:46:42.993Z,11.88
2018-09-16T05:47:43.017Z,11.97
2018-09-16T05:48:43.047Z,11.97
2018-09-16T05:49:43.071Z,12.00
2018-09-16T05:50:43.097Z,12.04
2018-09-16T05:52:25.672Z,12.05
2018-09-16T05:53:25.864Z,12.10
2018-09-16T05:54:25.728Z,12.15
2018-09-16T05:55:25.755Z,12.05
2018-09-16T05:56:25.777Z,12.18
2018-09-16T05:57:25.810Z,12.19
2018-09-16T05:58:25.834Z,12.18
2018-09-16T05:59:26.011Z,12.16
2018-09-16T06:00:25.884Z,12.18
2018-09-16T06:01:25.911Z,12.18
2018-09-16T06:02:25.943Z,12.13
2018-09-16T06:03:25.962Z,12.22
2018-09-16T06:04:25.993Z,12.16
2018-09-16T06:05:26.019Z,12.23
2018-09-16T06:06:26.044Z,12.18
2018-09-16T06:07:26.070Z,12.15
2018-09-16T06:08:26.099Z,12.11
2018-09-16T06:09:26.123Z,12.15
2018-09-16T06:10:26.154Z,12.15
2018-09-16T06:11:26.175Z,12.10
2018-09-16T06:12:26.202Z,12.22
2018-09-16T06:13:26.229Z,12.26
2018-09-16T06:14:26.258Z,12.45
2018-09-16T06:15:26.285Z,12.71
2018-09-16T06:16:26.311Z,13.03
2018-09-16T06:17:26.338Z,13.20
2018-09-16T06:18:26.363Z,13.54
2018-09-16T06:19:26.389Z,13.50
2018-09-16T06:20:26.417Z,13.76
2018-09-16T06:21:26.442Z,13.88
2018-09-16T06:22:26.474Z,13.91
2018-09-16T06:23:26.496Z,13.95
2018-09-16T06:24:26.526Z,13.97
2018-09-16T06:25:26.554Z,14.02
2018-09-16T06:26:26.577Z,14.06
2018-09-16T06:27:26.607Z,14.05
2018-09-16T06:28:26.632Z,13.99
2018-09-16T06:29:26.662Z,14.06
2018-09-16T06:30:26.688Z,14.31
2018-09-16T06:31:26.716Z,14.44
2018-09-16T06:32:26.742Z,14.67
2018-09-16T06:33:26.774Z,14.64
2018-09-16T06:34:26.798Z,14.66
2018-09-16T06:35:26.824Z,14.75
2018-09-16T06:36:26.855Z,14.46
2018-09-16T06:37:26.885Z,14.57
2018-09-16T06:38:26.910Z,14.87
2018-09-16T06:39:26.936Z,14.97
2018-09-16T06:40:26.965Z,14.93
2018-09-16T06:41:27.715Z,15.04
2018-09-16T06:42:27.034Z,15.04
2018-09-16T06:43:27.055Z,15.02
2018-09-16T06:44:27.075Z,15.26
2018-09-16T06:45:27.102Z,15.22
2018-09-16T06:46:27.131Z,15.65
2018-09-16T06:47:27.157Z,15.96
2018-09-16T06:48:27.185Z,16.13
2018-09-16T06:49:27.217Z,16.22
2018-09-16T06:50:27.244Z,16.40
2018-09-16T06:51:27.272Z,16.33
2018-09-16T06:52:27.303Z,16.44
2018-09-16T06:53:27.330Z,16.16
2018-09-16T06:54:27.406Z,16.44
2018-09-16T06:55:27.387Z,16.37
2018-09-16T06:56:27.420Z,16.54
2018-09-16T06:57:27.446Z,16.65
2018-09-16T06:58:27.480Z,16.94
2018-09-16T06:59:27.510Z,16.73
2018-09-16T07:00:27.537Z,16.82
2018-09-16T07:01:27.565Z,16.88
2018-09-16T07:02:27.597Z,16.69
2018-09-16T07:03:27.627Z,16.97
2018-09-16T07:04:27.655Z,17.18
2018-09-16T07:05:27.688Z,17.25
2018-09-16T07:06:27.721Z,17.40
2018-09-16T07:07:27.748Z,17.68
2018-09-16T07:08:27.850Z,17.77
2018-09-16T07:09:27.818Z,17.86
2018-09-16T07:10:27.843Z,17.96
2018-09-16T07:11:27.872Z,17.92
2018-09-16T07:12:27.903Z,17.28
2018-09-16T07:13:27.935Z,16.63
2018-09-16T07:14:28.015Z,15.98
2018-09-16T07:15:27.997Z,15.75
2018-09-16T07:16:28.028Z,15.55
2018-09-16T07:17:28.076Z,15.45
2018-09-16T07:18:28.088Z,15.34
2018-09-16T07:19:28.122Z,15.27
2018-09-16T07:20:28.153Z,15.41
2018-09-16T07:21:28.184Z,15.40
2018-09-16T07:22:28.217Z,15.51
2018-09-16T07:23:28.245Z,15.56
2018-09-16T07:24:28.274Z,15.65
2018-09-16T07:25:28.304Z,16.29
2018-09-16T07:26:28.336Z,17.13
2018-09-16T07:27:28.375Z,17.52
2018-09-16T07:28:28.402Z,17.99
2018-09-16T07:29:28.427Z,18.74
2018-09-16T07:30:28.454Z,19.34
2018-09-16T07:31:28.484Z,19.53
2018-09-16T07:32:28.519Z,19.67
2018-09-16T07:33:28.549Z,19.50
2018-09-16T07:34:28.578Z,19.46
2018-09-16T07:35:28.610Z,19.31
2018-09-16T07:36:28.641Z,19.40
2018-09-16T07:37:28.671Z,19.93
2018-09-16T07:38:28.703Z,20.29
2018-09-16T07:39:28.733Z,20.30
2018-09-16T07:40:28.766Z,20.29
2018-09-16T07:41:28.797Z,20.04
2018-09-16T07:42:28.831Z,20.02
2018-09-16T07:43:28.861Z,20.26
2018-09-16T07:44:28.893Z,20.23
2018-09-16T07:45:28.928Z,20.25
2018-09-16T07:46:28.961Z,20.42
2018-09-16T07:47:29.046Z,20.54
2018-09-16T07:48:29.027Z,20.79
2018-09-16T07:49:29.059Z,20.81
2018-09-16T07:50:29.094Z,21.11
2018-09-16T07:51:29.124Z,21.22
2018-09-16T07:52:29.157Z,21.12
2018-09-16T07:53:29.192Z,21.43
2018-09-16T07:54:29.224Z,21.52
2018-09-16T07:55:29.257Z,21.12
2018-09-16T07:56:29.293Z,21.15
2018-09-16T07:57:29.326Z,21.12
2018-09-16T07:58:29.358Z,21.30
2018-09-16T07:59:29.393Z,21.30
2018-09-16T08:00:29.432Z,21.46
2018-09-16T08:01:29.463Z,20.85
2018-09-16T08:02:29.496Z,20.91
2018-09-16T08:03:29.528Z,21.15
2018-09-16T08:04:29.567Z,21.68
2018-09-16T08:05:29.651Z,21.78
2018-09-16T08:06:29.634Z,21.52
2018-09-16T08:07:29.682Z,21.85
2018-09-16T08:08:29.706Z,21.82
2018-09-16T08:09:29.738Z,21.80
2018-09-16T08:10:29.775Z,22.14
2018-09-16T08:11:29.807Z,22.33
2018-09-16T08:12:29.847Z,22.33
2018-09-16T08:13:29.877Z,22.09
2018-09-16T08:14:29.913Z,22.54
2018-09-16T08:15:29.948Z,22.73
2018-09-16T08:16:29.983Z,22.92
2018-09-16T08:17:30.021Z,23.06
2018-09-16T08:18:30.057Z,23.21
2018-09-16T08:19:30.094Z,22.61
2018-09-16T08:20:30.126Z,22.59
2018-09-16T08:21:30.161Z,22.44
2018-09-16T08:22:30.200Z,22.52
2018-09-16T08:23:30.235Z,22.42
2018-09-16T08:24:30.267Z,21.89
2018-09-16T08:25:30.304Z,21.82
2018-09-16T08:26:30.340Z,22.20
2018-09-16T08:27:30.377Z,22.51
2018-09-16T08:28:30.465Z,22.66
2018-09-16T08:29:30.450Z,23.18
2018-09-16T08:30:30.486Z,23.37
2018-09-16T08:31:30.524Z,23.18
2018-09-16T08:32:30.555Z,23.00
2018-09-16T08:33:30.591Z,23.12
2018-09-16T08:34:30.630Z,23.56
2018-09-16T08:35:30.664Z,23.16
2018-09-16T08:36:30.700Z,23.47
2018-09-16T08:37:30.734Z,23.66
2018-09-16T08:38:30.784Z,23.78
2018-09-16T08:39:30.807Z,23.79
2018-09-16T08:40:30.843Z,23.99
2018-09-16T08:41:30.882Z,23.93
2018-09-16T08:42:30.918Z,23.47
2018-09-16T08:43:30.954Z,22.99
2018-09-16T08:44:30.987Z,22.61
2018-09-16T08:45:31.044Z,22.69
2018-09-16T08:46:31.062Z,22.49
2018-09-16T08:47:31.095Z,21.77
2018-09-16T08:48:31.135Z,21.55
2018-09-16T08:49:31.169Z,21.40
2018-09-16T08:50:31.203Z,21.15
2018-09-16T08:51:31.241Z,21.11
2018-09-16T08:52:31.276Z,21.08
2018-09-16T08:53:31.310Z,21.09
2018-09-16T08:54:31.345Z,21.12
2018-09-16T08:55:31.380Z,21.66
2018-09-16T08:56:31.417Z,22.45
2018-09-16T08:57:31.450Z,22.73
2018-09-16T08:58:31.620Z,23.53
2018-09-16T08:59:31.517Z,23.52
2018-09-16T09:00:31.554Z,23.35
2018-09-16T09:01:31.591Z,23.72
2018-09-16T09:02:31.623Z,24.14
2018-09-16T09:03:31.658Z,24.70
2018-09-16T09:04:31.695Z,24.46
2018-09-16T09:05:31.728Z,24.09
2018-09-16T09:06:31.764Z,24.12
2018-09-16T09:07:31.800Z,24.00
2018-09-16T09:08:31.832Z,24.08
2018-09-16T09:09:31.871Z,24.61
2018-09-16T09:10:31.905Z,24.46
2018-09-16T09:11:31.940Z,24.11
2018-09-16T09:12:31.975Z,24.37
2018-09-16T09:13:32.010Z,24.21
2018-09-16T09:14:32.048Z,24.39
2018-09-16T09:15:32.090Z,24.18
2018-09-16T09:16:32.120Z,24.08
2018-09-16T09:17:32.176Z,24.80
2018-09-16T09:18:32.187Z,24.85
2018-09-16T09:19:32.224Z,24.69
2018-09-16T09:20:32.259Z,24.75
2018-09-16T09:21:32.300Z,24.94
2018-09-16T09:22:32.332Z,25.02
2018-09-16T09:23:32.368Z,24.96
2018-09-16T09:24:32.407Z,25.62
2018-09-16T09:25:32.441Z,25.67
2018-09-16T09:26:32.479Z,25.59
2018-09-16T09:27:32.515Z,25.57
2018-09-16T09:28:32.550Z,25.84
2018-09-16T09:29:32.590Z,25.42
2018-09-16T09:30:32.624Z,25.11
2018-09-16T09:31:32.662Z,24.86
2018-09-16T09:32:32.698Z,24.74
2018-09-16T09:33:32.735Z,25.00
2018-09-16T09:34:32.772Z,24.48
2018-09-16T09:35:32.839Z,24.51
2018-09-16T09:36:32.847Z,25.09
2018-09-16T09:37:32.884Z,25.44
2018-09-16T09:38:32.917Z,26.12
2018-09-16T09:39:32.955Z,26.11
2018-09-16T09:40:32.990Z,25.97
2018-09-16T09:41:33.030Z,26.07
2018-09-16T09:42:33.069Z,26.44
2018-09-16T09:43:33.103Z,26.41
2018-09-16T09:44:33.141Z,26.30
2018-09-16T09:45:33.178Z,26.45
2018-09-16T09:46:33.214Z,26.15
2018-09-16T09:47:33.252Z,25.78
2018-09-16T09:48:33.287Z,25.89
2018-09-16T09:49:33.324Z,26.27
2018-09-16T09:50:33.363Z,26.74
2018-09-16T09:51:33.402Z,26.97
2018-09-16T09:52:33.451Z,26.82
2018-09-16T09:53:33.603Z,26.74
2018-09-16T09:54:33.515Z,27.15
2018-09-16T09:55:33.549Z,27.37
2018-09-16T09:56:33.590Z,27.55
2018-09-16T09:57:33.625Z,27.99
2018-09-16T09:58:33.662Z,27.27
2018-09-16T09:59:33.705Z,27.19
2018-09-16T10:00:33.739Z,27.05
2018-09-16T10:01:33.777Z,27.13
2018-09-16T10:02:33.824Z,27.00
2018-09-16T10:03:33.861Z,27.41
2018-09-16T10:04:33.892Z,27.66
2018-09-16T10:05:33.932Z,28.08
2018-09-16T10:06:33.970Z,27.69
2018-09-16T10:07:34.008Z,27.23
2018-09-16T10:08:34.046Z,27.12
2018-09-16T10:09:34.085Z,26.60
2018-09-16T10:10:34.123Z,26.82
2018-09-16T10:11:34.163Z,26.44
2018-09-16T10:12:34.200Z,26.52
2018-09-16T10:13:34.236Z,26.42
2018-09-16T10:14:34.383Z,26.61
2018-09-16T10:15:34.316Z,26.44
2018-09-16T10:16:34.350Z,26.72
2018-09-16T10:17:34.391Z,26.74
2018-09-16T10:18:34.430Z,27.12
2018-09-16T10:19:34.468Z,27.24
2018-09-16T10:20:34.507Z,27.69
2018-09-16T10:21:34.544Z,27.94
2018-09-16T10:22:34.608Z,27.87
2018-09-16T10:23:34.620Z,27.69
2018-09-16T10:24:34.659Z,27.65
2018-09-16T10:25:34.695Z,28.12
2018-09-16T10:26:34.737Z,28.43
2018-09-16T10:27:34.774Z,28.36
2018-09-16T10:28:34.811Z,28.55
2018-09-16T10:29:34.849Z,27.69
2018-09-16T10:30:34.890Z,27.18
2018-09-16T10:31:34.924Z,27.21
2018-09-16T10:32:34.963Z,27.06
2018-09-16T10:33:35.004Z,27.15
2018-09-16T10:34:35.044Z,26.94
2018-09-16T10:35:35.078Z,26.47
2018-09-16T10:36:35.119Z,26.09
2018-09-16T10:37:35.159Z,26.35
2018-09-16T10:38:35.297Z,27.26
2018-09-16T10:39:35.241Z,26.72
2018-09-16T10:40:35.273Z,26.19
2018-09-16T10:41:35.311Z,26.03
2018-09-16T10:42:35.350Z,26.32
2018-09-16T10:43:35.385Z,26.87
2018-09-16T10:44:35.424Z,26.97
2018-09-16T10:45:35.465Z,27.27
2018-09-16T10:46:35.498Z,27.19
2018-09-16T10:47:35.536Z,27.06
2018-09-16T10:48:35.577Z,26.84
2018-09-16T10:49:35.616Z,27.15
2018-09-16T10:50:35.653Z,27.57
2018-09-16T10:51:35.689Z,27.37
2018-09-16T10:52:35.726Z,27.21
2018-09-16T10:53:35.766Z,26.52
2018-09-16T10:54:35.801Z,25.93
2018-09-16T10:55:35.841Z,25.89
2018-09-16T10:56:35.879Z,25.99
2018-09-16T10:57:35.915Z,26.17
2018-09-16T10:58:35.953Z,26.44
2018-09-16T10:59:35.990Z,26.97
2018-09-16T11:00:36.027Z,27.31
2018-09-16T11:01:36.068Z,27.16
2018-09-16T11:02:36.105Z,27.24
2018-09-16T11:03:36.139Z,27.06
2018-09-16T11:04:36.181Z,27.09
2018-09-16T11:05:36.218Z,27.36
2018-09-16T11:06:36.253Z,27.13
2018-09-16T11:07:36.293Z,27.96
2018-09-16T11:08:36.331Z,28.03
2018-09-16T11:09:36.367Z,28.02
2018-09-16T11:10:36.406Z,27.84
2018-09-16T11:11:36.439Z,27.69
2018-09-16T11:12:36.478Z,28.02
2018-09-16T11:13:36.517Z,28.11
2018-09-16T11:14:36.555Z,28.09
2018-09-16T11:15:36.593Z,27.57
2018-09-16T11:16:36.629Z,28.02
2018-09-16T11:17:36.668Z,28.55
2018-09-16T11:18:36.706Z,28.57
2018-09-16T11:19:36.744Z,28.75
2018-09-16T11:20:36.783Z,28.49
2018-09-16T11:21:36.818Z,28.11
2018-09-16T11:22:36.858Z,27.72
2018-09-16T11:23:36.896Z,28.12
2018-09-16T11:24:36.945Z,28.68
2018-09-16T11:25:36.970Z,29.26
2018-09-16T11:26:37.010Z,28.98
2018-09-16T11:27:37.045Z,29.13
2018-09-16T11:28:37.086Z,29.30
2018-09-16T11:29:37.125Z,28.86
2018-09-16T11:30:37.163Z,29.17
2018-09-16T11:31:37.204Z,28.86
2018-09-16T11:32:37.250Z,28.38
2018-09-16T11:33:37.278Z,28.64
2018-09-16T11:34:37.314Z,28.30
2018-09-16T11:35:37.418Z,28.41
2018-09-16T11:36:37.400Z,28.26
2018-09-16T11:37:37.430Z,28.26
2018-09-16T11:38:37.469Z,28.08
2018-09-16T11:39:37.507Z,27.75
2018-09-16T11:40:37.556Z,27.65
2018-09-16T11:41:37.584Z,27.68
2018-09-16T11:42:37.625Z,27.93
2018-09-16T11:43:37.662Z,27.99
2018-09-16T11:44:37.700Z,28.49
2018-09-16T11:45:37.737Z,28.51
2018-09-16T11:46:37.779Z,28.58
2018-09-16T11:47:37.816Z,28.43
2018-09-16T11:48:37.856Z,28.20
2018-09-16T11:49:37.891Z,28.16
2018-09-16T11:50:37.932Z,28.03
2018-09-16T11:51:37.984Z,27.49
2018-09-16T11:52:38.005Z,27.27
2018-09-16T11:53:38.044Z,27.12
2018-09-16T11:54:38.082Z,27.34
2018-09-16T11:55:38.120Z,27.27
2018-09-16T11:56:38.157Z,26.87
2018-09-16T11:57:38.199Z,27.27
2018-09-16T11:58:38.237Z,27.18
2018-09-16T11:59:38.275Z,27.13
2018-09-16T12:00:38.312Z,27.69
2018-09-16T12:01:38.349Z,27.69
2018-09-16T12:02:38.387Z,27.84
2018-09-16T12:03:38.424Z,27.42
2018-09-16T12:04:38.463Z,27.19
2018-09-16T12:05:38.497Z,26.90
2018-09-16T12:06:38.539Z,26.41
2018-09-16T12:07:38.579Z,26.60
2018-09-16T12:08:38.609Z,27.04
2018-09-16T12:09:38.647Z,27.21
2018-09-16T12:10:38.687Z,27.41
2018-09-16T12:11:38.724Z,27.16
2018-09-16T12:12:38.757Z,26.69
2018-09-16T12:13:38.797Z,26.41
2018-09-16T12:14:38.834Z,26.47
2018-09-16T12:15:38.869Z,26.54
2018-09-16T12:16:38.908Z,27.00
2018-09-16T12:17:38.941Z,26.97
2018-09-16T12:18:38.980Z,26.79
2018-09-16T12:19:39.017Z,27.05
2018-09-16T12:20:39.052Z,27.33
2018-09-16T12:21:39.092Z,27.52
2018-09-16T12:22:39.126Z,27.61
2018-09-16T12:23:39.163Z,27.53
2018-09-16T12:24:39.200Z,28.02
2018-09-16T12:25:39.235Z,28.58
2018-09-16T12:26:39.272Z,28.86
2018-09-16T12:27:39.311Z,29.05
2018-09-16T12:28:39.345Z,28.58
2018-09-16T12:29:39.382Z,28.06
2018-09-16T12:30:39.417Z,27.96
2018-09-16T12:31:39.454Z,28.14
2018-09-16T12:32:39.492Z,27.98
2018-09-16T12:33:39.527Z,27.99
2018-09-16T12:34:39.566Z,28.21
2018-09-16T12:35:39.602Z,28.43
2018-09-16T12:36:39.639Z,28.48
2018-09-16T12:37:39.679Z,27.99
2018-09-16T12:38:39.711Z,27.19
2018-09-16T12:39:39.749Z,27.21
2018-09-16T12:40:39.783Z,26.97
2018-09-16T12:41:39.822Z,26.99
2018-09-16T12:42:39.857Z,26.64
2018-09-16T12:43:39.895Z,27.01
2018-09-16T12:44:39.931Z,26.67
2018-09-16T12:45:39.979Z,26.68
2018-09-16T12:46:40.005Z,26.81
2018-09-16T12:47:40.044Z,27.11
2018-09-16T12:48:40.076Z,27.36
2018-09-16T12:49:40.111Z,27.80
2018-09-16T12:50:40.153Z,28.39
2018-09-16T12:51:40.196Z,28.95
2018-09-16T12:52:40.220Z,28.42
2018-09-16T12:53:40.258Z,28.31
2018-09-16T12:54:40.294Z,28.55